createdAt,value
2022-09-26T00:02:21.233Z,95.40
2022-09-26T00:05:13.674Z,95.50
2022-09-26T00:08:05.844Z,95.50
2022-09-26T00:11:01.065Z,95.60
2022-09-26T00:14:03.396Z,95.60
2022-09-26T00:16:51.370Z,95.60
2022-09-26T00:19:43.271Z,95.60
2022-09-26T00:22:38.115Z,96.00
2022-09-26T00:25:32.338Z,95.60
2022-09-26T00:28:21.928Z,95.60
2022-09-26T00:31:12.142Z,95.70
2022-09-26T00:34:00.398Z,95.60
2022-09-26T00:36:47.699Z,95.60
2022-09-26T00:39:36.985Z,95.70
2022-09-26T00:42:25.538Z,95.70
2022-09-26T00:45:18.181Z,95.70
2022-09-26T00:48:13.279Z,95.70
2022-09-26T00:51:06.910Z,95.70
2022-09-26T00:53:56.132Z,95.70
2022-09-26T00:56:51.193Z,95.70
2022-09-26T00:59:47.578Z,95.70
2022-09-26T01:02:39.351Z,95.70
2022-09-26T01:05:27.987Z,95.70
2022-09-26T01:08:17.154Z,95.70
2022-09-26T01:11:16.670Z,95.70
2022-09-26T01:14:13.374Z,95.70
2022-09-26T01:17:01.269Z,95.70
2022-09-26T01:20:03.539Z,95.70
2022-09-26T01:23:38.095Z,95.70
2022-09-26T01:26:52.295Z,95.70
2022-09-26T01:30:06.126Z,95.70
2022-09-26T01:33:08.510Z,95.80
2022-09-26T01:36:11.549Z,95.80
2022-09-26T01:39:24.865Z,95.80
2022-09-26T01:42:25.063Z,95.80
2022-09-26T01:45:20.742Z,95.90
2022-09-26T01:48:18.705Z,96.20
2022-09-26T01:51:16.274Z,95.80
2022-09-26T01:54:12.860Z,95.90
2022-09-26T01:57:07.212Z,95.80
2022-09-26T02:00:10.360Z,95.80
2022-09-26T02:03:10.718Z,95.80
2022-09-26T02:06:05.768Z,95.80
2022-09-26T02:08:57.919Z,95.70
2022-09-26T02:11:53.645Z,95.70
2022-09-26T02:14:50.187Z,95.70
2022-09-26T02:17:46.814Z,95.70
2022-09-26T02:20:42.150Z,95.70
2022-09-26T02:23:30.030Z,95.70
2022-09-26T02:26:20.855Z,95.70
2022-09-26T02:29:08.993Z,95.70
2022-09-26T02:32:01.217Z,95.80
2022-09-26T02:34:50.514Z,95.70
2022-09-26T02:37:44.252Z,95.70
2022-09-26T02:40:44.446Z,95.70
2022-09-26T02:43:45.946Z,95.70
2022-09-26T02:46:51.831Z,95.70
2022-09-26T02:49:56.687Z,95.70
2022-09-26T02:53:00.181Z,95.70
2022-09-26T02:56:14.695Z,95.70
2022-09-26T02:59:17.093Z,95.70
2022-09-26T03:02:13.678Z,95.70
2022-09-26T03:05:10.349Z,95.70
2022-09-26T03:08:06.592Z,95.70
2022-09-26T03:10:57.359Z,95.70
2022-09-26T03:13:53.868Z,95.70
2022-09-26T03:16:46.462Z,95.60
2022-09-26T03:19:40.954Z,95.60
2022-09-26T03:22:36.805Z,95.70
2022-09-26T03:25:29.226Z,95.70
2022-09-26T03:28:23.560Z,95.70
2022-09-26T03:31:14.075Z,95.70
2022-09-26T03:34:15.412Z,95.60
2022-09-26T03:37:04.704Z,95.70
2022-09-26T03:40:00.334Z,95.70
2022-09-26T03:43:09.372Z,95.70
2022-09-26T03:46:08.752Z,95.70
2022-09-26T03:48:57.991Z,95.70
2022-09-26T03:51:46.206Z,95.70
2022-09-26T03:54:38.080Z,95.70
2022-09-26T03:57:25.562Z,95.80
2022-09-26T04:00:22.710Z,95.80
2022-09-26T04:03:10.712Z,95.80
2022-09-26T04:06:03.755Z,95.80
2022-09-26T04:08:58.045Z,95.90
2022-09-26T04:11:46.605Z,95.90
2022-09-26T04:14:34.683Z,95.90
2022-09-26T04:17:26.791Z,95.90
2022-09-26T04:20:19.429Z,96.00
2022-09-26T04:23:09.759Z,96.00
2022-09-26T04:26:10.608Z,95.90
2022-09-26T04:28:59.323Z,96.00
2022-09-26T04:32:11.402Z,96.00
2022-09-26T04:35:12.464Z,96.00
2022-09-26T04:38:05.511Z,96.00
2022-09-26T04:40:54.659Z,96.10
2022-09-26T04:43:44.522Z,96.00
2022-09-26T04:46:39.625Z,96.10
2022-09-26T04:49:27.391Z,96.10
2022-09-26T04:52:18.910Z,96.10
2022-09-26T04:55:08.707Z,96.20
2022-09-26T04:58:02.744Z,96.10
2022-09-26T05:00:52.741Z,96.20
2022-09-26T05:03:49.858Z,96.60
2022-09-26T05:06:39.438Z,96.20
2022-09-26T05:09:38.908Z,96.20
2022-09-26T05:12:30.908Z,96.20
2022-09-26T05:15:27.587Z,96.20
2022-09-26T05:18:18.946Z,96.20
2022-09-26T05:21:08.079Z,96.20
2022-09-26T05:24:14.633Z,96.10
2022-09-26T05:27:06.821Z,96.20
2022-09-26T05:29:57.371Z,96.20
2022-09-26T05:32:51.203Z,96.20
2022-09-26T05:35:56.179Z,96.20
2022-09-26T05:38:50.002Z,96.20
2022-09-26T05:41:46.729Z,96.30
2022-09-26T05:44:43.190Z,96.30
2022-09-26T05:47:39.098Z,96.30
2022-09-26T05:50:33.324Z,96.20
2022-09-26T05:53:24.277Z,96.30
2022-09-26T05:56:21.531Z,96.30
2022-09-26T05:59:39.577Z,96.20
2022-09-26T06:03:00.116Z,96.30
2022-09-26T06:06:02.940Z,96.20
2022-09-26T06:08:50.855Z,96.70
2022-09-26T06:11:43.803Z,96.30
2022-09-26T06:14:32.336Z,96.20
2022-09-26T06:17:21.299Z,96.40
2022-09-26T06:20:09.690Z,96.40
2022-09-26T06:22:58.208Z,96.50
2022-09-26T06:25:45.893Z,96.40
2022-09-26T06:28:33.371Z,96.40
2022-09-26T06:31:22.127Z,96.40
2022-09-26T06:34:30.409Z,96.40
2022-09-26T06:37:17.626Z,96.40
2022-09-26T06:40:05.000Z,96.40
2022-09-26T06:42:52.315Z,96.40
2022-09-26T06:45:46.279Z,96.20
2022-09-26T06:48:53.498Z,96.20
2022-09-26T06:52:08.905Z,96.30
2022-09-26T06:55:11.103Z,96.30
2022-09-26T06:57:59.774Z,96.20
2022-09-26T07:01:02.909Z,96.30
2022-09-26T07:04:13.861Z,96.20
2022-09-26T07:07:11.866Z,96.30
2022-09-26T07:10:01.910Z,96.20
2022-09-26T07:13:05.428Z,96.20
2022-09-26T07:15:53.621Z,96.20
2022-09-26T07:19:05.039Z,96.20
2022-09-26T07:21:58.839Z,96.10
2022-09-26T07:24:52.098Z,96.10
2022-09-26T07:27:42.808Z,96.10
2022-09-26T07:30:33.953Z,96.10
2022-09-26T07:33:34.409Z,96.10
2022-09-26T07:36:27.524Z,96.20
2022-09-26T07:39:15.402Z,96.00
2022-09-26T07:42:04.502Z,96.00
2022-09-26T07:45:24.567Z,96.00
2022-09-26T07:48:16.386Z,96.00
2022-09-26T07:51:24.640Z,96.00
2022-09-26T07:54:12.962Z,96.00
2022-09-26T07:57:20.076Z,95.90
2022-09-26T08:00:41.153Z,95.90
2022-09-26T08:03:38.732Z,95.90
2022-09-26T08:06:29.309Z,95.80
2022-09-26T08:09:17.439Z,95.80
2022-09-26T08:12:27.437Z,95.70
2022-09-26T08:15:36.911Z,95.60
2022-09-26T08:18:24.971Z,95.60
2022-09-26T08:21:18.262Z,95.70
2022-09-26T08:24:09.488Z,95.70
2022-09-26T08:27:21.769Z,95.50
2022-09-26T08:30:13.804Z,95.40
2022-09-26T08:33:02.836Z,95.30
2022-09-26T08:35:53.109Z,94.90
2022-09-26T08:38:57.316Z,94.70
2022-09-26T08:42:26.219Z,94.40
2022-09-26T08:46:01.331Z,94.20
2022-09-26T08:49:08.815Z,94.10
2022-09-26T08:52:07.129Z,94.40
2022-09-26T08:54:58.385Z,94.40
2022-09-26T08:57:50.089Z,94.30
2022-09-26T09:00:40.318Z,94.00
2022-09-26T09:03:35.948Z,94.00
2022-09-26T09:06:31.350Z,94.10
2022-09-26T09:09:19.199Z,93.90
2022-09-26T09:12:23.929Z,93.80
2022-09-26T09:15:39.971Z,93.60
2022-09-26T09:18:44.711Z,93.20
2022-09-26T09:21:52.514Z,93.20
2022-09-26T09:24:58.173Z,93.70
2022-09-26T09:28:02.502Z,93.00
2022-09-26T09:31:02.879Z,92.90
2022-09-26T09:34:08.051Z,92.60
2022-09-26T09:37:12.701Z,92.60
2022-09-26T09:40:33.333Z,92.10
2022-09-26T09:43:29.196Z,91.40
2022-09-26T09:46:29.363Z,91.10
2022-09-26T09:49:22.005Z,91.20
2022-09-26T09:52:27.597Z,91.00
2022-09-26T09:55:31.310Z,90.60
2022-09-26T09:58:38.279Z,90.60
2022-09-26T10:01:32.229Z,90.30
2022-09-26T10:04:37.600Z,90.10
2022-09-26T10:07:25.533Z,89.50
2022-09-26T10:10:42.799Z,89.00
2022-09-26T10:13:54.082Z,87.70
2022-09-26T10:17:16.061Z,87.10
2022-09-26T10:20:28.225Z,86.60
2022-09-26T10:23:24.104Z,86.00
2022-09-26T10:26:14.236Z,85.70
2022-09-26T10:29:05.563Z,85.80
2022-09-26T10:31:57.605Z,84.80
2022-09-26T10:35:05.719Z,85.00
2022-09-26T10:38:02.200Z,85.60
2022-09-26T10:40:55.530Z,86.80
2022-09-26T10:44:00.935Z,87.80
2022-09-26T10:47:13.507Z,88.20
2022-09-26T10:50:28.254Z,88.90
2022-09-26T10:53:26.110Z,89.80
2022-09-26T10:56:27.905Z,89.90
2022-09-26T10:59:20.666Z,89.90
2022-09-26T11:02:20.193Z,89.80
2022-09-26T11:05:23.385Z,90.00
2022-09-26T11:08:29.366Z,90.00
2022-09-26T11:11:38.426Z,90.40
2022-09-26T11:14:35.063Z,90.40
2022-09-26T11:17:45.549Z,90.30
2022-09-26T11:20:45.918Z,90.40
2022-09-26T11:23:40.901Z,90.40
2022-09-26T11:26:40.775Z,90.90
2022-09-26T11:29:44.182Z,90.30
2022-09-26T11:32:41.303Z,90.10
2022-09-26T11:36:06.603Z,89.30
2022-09-26T11:38:59.692Z,89.80
2022-09-26T11:42:06.597Z,89.60
2022-09-26T11:45:01.225Z,90.00
2022-09-26T11:48:28.939Z,88.80
2022-09-26T11:51:52.625Z,88.70
2022-09-26T11:54:58.899Z,88.70
2022-09-26T11:57:58.658Z,88.70
2022-09-26T12:01:01.243Z,87.20
2022-09-26T12:04:06.554Z,86.40
2022-09-26T12:07:02.649Z,86.60
2022-09-26T12:10:06.141Z,86.00
2022-09-26T12:13:12.186Z,86.30
2022-09-26T12:16:08.027Z,85.60
2022-09-26T12:19:05.673Z,86.30
2022-09-26T12:22:17.672Z,85.40
2022-09-26T12:25:37.265Z,84.50
2022-09-26T12:28:45.482Z,84.70
2022-09-26T12:31:51.161Z,84.10
2022-09-26T12:34:56.615Z,84.10
2022-09-26T12:38:02.974Z,84.70
2022-09-26T12:41:03.111Z,83.90
2022-09-26T12:44:08.949Z,82.70
2022-09-26T12:47:13.419Z,83.00
2022-09-26T12:50:17.979Z,82.80
2022-09-26T12:53:26.197Z,81.20
2022-09-26T12:56:23.799Z,80.30
2022-09-26T12:59:26.399Z,80.30
2022-09-26T13:02:38.769Z,80.30
2022-09-26T13:05:52.271Z,79.70
2022-09-26T13:08:38.954Z,80.60
2022-09-26T13:11:32.689Z,81.50
2022-09-26T13:14:35.314Z,81.20
2022-09-26T13:17:26.317Z,81.20
2022-09-26T13:20:19.026Z,80.40
2022-09-26T13:23:12.108Z,80.70
2022-09-26T13:26:06.960Z,81.60
2022-09-26T13:29:17.130Z,80.00
2022-09-26T13:32:23.010Z,79.70
2022-09-26T13:35:22.844Z,79.80
2022-09-26T13:38:30.841Z,77.80
2022-09-26T13:41:30.431Z,78.60
2022-09-26T13:44:28.922Z,77.40
2022-09-26T13:47:27.571Z,76.80
2022-09-26T13:50:25.251Z,76.60
2022-09-26T13:53:21.789Z,75.90
2022-09-26T13:56:39.064Z,74.70
2022-09-26T13:59:28.463Z,74.30
2022-09-26T14:02:21.337Z,73.60
2022-09-26T14:05:38.650Z,72.10
2022-09-26T14:08:43.506Z,71.40
2022-09-26T14:11:46.427Z,71.30
2022-09-26T14:14:45.379Z,71.00
2022-09-26T14:18:02.739Z,70.80
2022-09-26T14:24:28.594Z,74.00
2022-09-26T14:27:25.293Z,75.10
2022-09-26T14:30:30.722Z,74.80
2022-09-26T14:33:24.651Z,74.80
2022-09-26T14:36:27.324Z,74.20
2022-09-26T14:39:33.527Z,74.10
2022-09-26T14:42:28.906Z,73.20
2022-09-26T14:45:23.554Z,73.10
2022-09-26T14:48:30.123Z,72.40
2022-09-26T14:51:31.148Z,72.20
2022-09-26T14:54:32.047Z,72.60
2022-09-26T14:57:28.585Z,71.90
2022-09-26T15:00:38.198Z,72.20
2022-09-26T15:03:28.770Z,70.50
2022-09-26T15:06:19.184Z,70.70
2022-09-26T15:09:16.710Z,71.10
2022-09-26T15:12:18.235Z,70.30
2022-09-26T15:15:22.036Z,68.60
2022-09-26T15:18:16.911Z,67.50
2022-09-26T15:21:12.905Z,68.70
2022-09-26T15:24:04.725Z,68.70
2022-09-26T15:26:55.765Z,68.80
2022-09-26T15:29:50.186Z,68.50
2022-09-26T15:32:43.580Z,68.50
2022-09-26T15:35:31.758Z,68.50
2022-09-26T15:38:19.730Z,68.90
2022-09-26T15:41:07.039Z,69.60
2022-09-26T15:44:01.327Z,68.50
2022-09-26T15:46:51.028Z,68.20
2022-09-26T15:49:41.292Z,68.90
2022-09-26T15:52:29.076Z,69.00
2022-09-26T15:55:20.509Z,69.80
2022-09-26T15:58:12.353Z,70.00
2022-09-26T16:01:03.061Z,69.60
2022-09-26T16:03:58.569Z,69.70
2022-09-26T16:07:07.449Z,70.00
2022-09-26T16:09:56.456Z,70.20
2022-09-26T16:12:44.248Z,71.00
2022-09-26T16:15:34.438Z,71.90
2022-09-26T16:18:28.329Z,71.80
2022-09-26T16:21:20.901Z,72.20
2022-09-26T16:24:36.092Z,73.20
2022-09-26T16:27:26.243Z,73.20
2022-09-26T16:30:38.382Z,74.50
2022-09-26T16:33:34.505Z,75.70
2022-09-26T16:36:25.320Z,75.80
2022-09-26T16:39:22.405Z,76.90
2022-09-26T16:42:19.687Z,77.60
2022-09-26T16:45:07.978Z,77.20
2022-09-26T16:47:56.999Z,78.10
2022-09-26T16:50:47.008Z,78.50
2022-09-26T16:53:34.257Z,78.50
2022-09-26T16:56:27.654Z,78.60
2022-09-26T16:59:17.158Z,78.40
2022-09-26T17:02:14.910Z,78.50
2022-09-26T17:05:07.146Z,80.50
2022-09-26T17:07:58.753Z,79.90
2022-09-26T17:10:47.212Z,80.30
2022-09-26T17:13:37.893Z,80.60
2022-09-26T17:16:25.495Z,81.00
2022-09-26T17:19:17.905Z,81.20
2022-09-26T17:22:06.376Z,81.60
2022-09-26T17:24:56.366Z,81.30
2022-09-26T17:27:58.980Z,81.40
2022-09-26T17:30:46.471Z,81.60
2022-09-26T17:33:35.137Z,81.80
2022-09-26T17:36:28.279Z,81.60
2022-09-26T17:39:29.220Z,81.60
2022-09-26T17:42:23.198Z,81.80
2022-09-26T17:45:13.311Z,81.60
2022-09-26T17:48:07.596Z,80.60
2022-09-26T17:51:00.970Z,79.70
2022-09-26T17:53:52.843Z,79.80
2022-09-26T17:56:45.669Z,79.70
2022-09-26T17:59:35.429Z,79.50
2022-09-26T18:02:33.235Z,79.50
2022-09-26T18:05:27.356Z,79.50
2022-09-26T18:08:25.375Z,79.50
2022-09-26T18:11:18.147Z,79.50
2022-09-26T18:14:08.365Z,79.50
2022-09-26T18:16:59.966Z,79.50
2022-09-26T18:19:50.717Z,79.40
2022-09-26T18:22:43.719Z,79.90
2022-09-26T18:25:31.783Z,80.10
2022-09-26T18:28:23.384Z,80.50
2022-09-26T18:31:17.441Z,80.40
2022-09-26T18:34:12.178Z,80.50
2022-09-26T18:37:03.883Z,80.60
2022-09-26T18:39:55.119Z,80.90
2022-09-26T18:42:47.185Z,80.90
2022-09-26T18:45:36.851Z,81.00
2022-09-26T18:48:26.702Z,81.00
2022-09-26T18:51:20.925Z,80.90
2022-09-26T18:54:14.885Z,80.90
2022-09-26T18:57:18.697Z,81.00
2022-09-26T19:00:05.613Z,81.00
2022-09-26T19:02:52.699Z,81.10
2022-09-26T19:05:38.995Z,81.50
2022-09-26T19:08:36.740Z,82.00
2022-09-26T19:11:30.185Z,82.40
2022-09-26T19:14:24.218Z,82.50
2022-09-26T19:17:13.579Z,82.20
2022-09-26T19:20:04.795Z,81.60
2022-09-26T19:22:58.604Z,81.60
2022-09-26T19:25:53.335Z,81.70
2022-09-26T19:28:43.761Z,81.50
2022-09-26T19:31:35.354Z,81.40
2022-09-26T19:34:27.254Z,81.50
2022-09-26T19:37:18.606Z,81.60
2022-09-26T19:40:14.107Z,81.90
2022-09-26T19:43:05.962Z,82.00
2022-09-26T19:45:56.075Z,82.50
2022-09-26T19:48:46.527Z,82.60
2022-09-26T19:51:39.753Z,82.80
2022-09-26T19:54:26.922Z,83.00
2022-09-26T19:57:22.645Z,83.60
2022-09-26T20:00:15.541Z,84.70
2022-09-26T20:03:03.820Z,84.90
2022-09-26T20:05:51.826Z,85.30
2022-09-26T20:08:43.584Z,85.00
2022-09-26T20:11:31.001Z,84.70
2022-09-26T20:14:29.879Z,86.00
2022-09-26T20:17:25.582Z,85.60
2022-09-26T20:20:17.942Z,85.50
2022-09-26T20:23:06.384Z,84.80
2022-09-26T20:25:58.062Z,85.10
2022-09-26T20:28:48.891Z,84.70
2022-09-26T20:31:36.905Z,84.90
2022-09-26T20:34:30.453Z,84.20
2022-09-26T20:37:20.033Z,84.50
2022-09-26T20:40:16.816Z,84.60
2022-09-26T20:43:11.736Z,84.80
2022-09-26T20:46:03.903Z,84.90
2022-09-26T20:48:52.688Z,85.20
2022-09-26T20:51:48.047Z,84.80
2022-09-26T20:54:35.610Z,85.20
2022-09-26T20:57:26.324Z,84.70
2022-09-26T21:00:17.037Z,84.50
2022-09-26T21:03:07.355Z,84.20
2022-09-26T21:05:58.078Z,84.20
2022-09-26T21:08:49.111Z,84.80
2022-09-26T21:11:43.088Z,85.60
2022-09-26T21:14:33.617Z,84.90
2022-09-26T21:17:25.931Z,85.20
2022-09-26T21:20:17.498Z,84.60
2022-09-26T21:23:24.920Z,84.80
2022-09-26T21:26:19.294Z,84.90
2022-09-26T21:29:16.003Z,85.00
2022-09-26T21:32:08.173Z,84.70
2022-09-26T21:35:04.487Z,85.40
2022-09-26T21:37:54.332Z,85.40
2022-09-26T21:40:48.385Z,85.70
2022-09-26T21:43:41.746Z,86.10
2022-09-26T21:46:29.221Z,86.00
2022-09-26T21:49:20.269Z,86.00
2022-09-26T21:52:22.291Z,86.10
2022-09-26T21:55:20.670Z,86.20
2022-09-26T21:58:13.217Z,87.10
2022-09-26T22:01:05.208Z,86.40
2022-09-26T22:03:54.622Z,87.30
2022-09-26T22:06:43.194Z,86.80
2022-09-26T22:09:33.110Z,86.70
2022-09-26T22:12:20.242Z,87.30
2022-09-26T22:15:10.284Z,87.10
2022-09-26T22:18:06.192Z,88.00
2022-09-26T22:20:58.224Z,88.30
2022-09-26T22:23:51.383Z,88.60
2022-09-26T22:26:47.289Z,88.80
2022-09-26T22:29:36.952Z,89.60
2022-09-26T22:32:26.564Z,89.00
2022-09-26T22:35:16.217Z,88.80
2022-09-26T22:38:03.731Z,88.20
2022-09-26T22:40:59.398Z,88.50
2022-09-26T22:43:46.848Z,88.50
2022-09-26T22:46:38.402Z,88.40
2022-09-26T22:49:26.237Z,88.20
2022-09-26T22:52:15.464Z,88.40
2022-09-26T22:55:10.470Z,88.20
2022-09-26T22:57:57.804Z,89.00
2022-09-26T23:00:45.515Z,88.20
2022-09-26T23:03:33.531Z,88.20
2022-09-26T23:06:24.054Z,88.40
2022-09-26T23:09:14.304Z,88.70
2022-09-26T23:12:10.583Z,88.90
2022-09-26T23:15:08.513Z,88.70
2022-09-26T23:17:57.762Z,88.40
2022-09-26T23:20:47.887Z,88.50
2022-09-26T23:23:41.966Z,88.60
2022-09-26T23:26:35.683Z,88.70
2022-09-26T23:29:28.345Z,88.90
2022-09-26T23:32:18.366Z,88.90
2022-09-26T23:35:14.935Z,88.90
2022-09-26T23:38:05.298Z,88.70
2022-09-26T23:40:54.501Z,89.00
2022-09-26T23:43:53.613Z,89.00
2022-09-26T23:46:41.404Z,89.40
2022-09-26T23:49:36.579Z,89.20
2022-09-26T23:52:27.091Z,89.50
2022-09-26T23:55:19.609Z,89.30
2022-09-26T23:58:10.657Z,89.60
